sensor_id;sensor_type;location;lat;lon;timestamp;pressure;altitude;pressure_sealevel;temperature;humidity
40372;BME280;28564;53.346;-6.554;2023-02-19T00:01:19;101796.52;;;12.06;46.89
40372;BME280;28564;53.346;-6.554;2023-02-19T00:03:54;101801.41;;;12.47;47.02
40372;BME280;28564;53.346;-6.554;2023-02-19T00:06:23;101807.71;;;11.90;47.23
40372;BME280;28564;53.346;-6.554;2023-02-19T00:08:50;101804.74;;;11.85;47.34
40372;BME280;28564;53.346;-6.554;2023-02-19T00:11:20;101803.04;;;11.81;47.28
40372;BME280;28564;53.346;-6.554;2023-02-19T00:13:49;101802.65;;;11.78;47.20
40372;BME280;28564;53.346;-6.554;2023-02-19T00:16:18;101810.73;;;11.73;47.25
40372;BME280;28564;53.346;-6.554;2023-02-19T00:18:46;101825.57;;;11.98;47.28
40372;BME280;28564;53.346;-6.554;2023-02-19T00:21:14;101830.46;;;12.20;47.23
40372;BME280;28564;53.346;-6.554;2023-02-19T00:23:42;101834.35;;;11.69;47.38
40372;BME280;28564;53.346;-6.554;2023-02-19T00:26:11;101828.71;;;11.72;47.51
40372;BME280;28564;53.346;-6.554;2023-02-19T00:28:39;101837.77;;;11.88;47.31
40372;BME280;28564;53.346;-6.554;2023-02-19T00:31:07;101840.79;;;12.03;47.16
40372;BME280;28564;53.346;-6.554;2023-02-19T00:33:35;101842.36;;;11.71;46.89
40372;BME280;28564;53.346;-6.554;2023-02-19T00:36:04;101847.51;;;12.01;46.75
40372;BME280;28564;53.346;-6.554;2023-02-19T00:38:34;101846.33;;;11.87;46.59
40372;BME280;28564;53.346;-6.554;2023-02-19T00:41:03;101848.04;;;11.89;46.60
40372;BME280;28564;53.346;-6.554;2023-02-19T00:43:30;101847.49;;;12.17;46.61
40372;BME280;28564;53.346;-6.554;2023-02-19T00:45:57;101853.03;;;12.01;46.34
40372;BME280;28564;53.346;-6.554;2023-02-19T00:48:24;101859.92;;;12.18;46.41
40372;BME280;28564;53.346;-6.554;2023-02-19T00:50:51;101871.99;;;12.08;46.57
40372;BME280;28564;53.346;-6.554;2023-02-19T00:53:19;101862.39;;;12.06;47.03
40372;BME280;28564;53.346;-6.554;2023-02-19T00:55:46;101858.98;;;11.81;47.43
40372;BME280;28564;53.346;-6.554;2023-02-19T00:58:14;101856.51;;;11.63;47.87
40372;BME280;28564;53.346;-6.554;2023-02-19T01:00:41;101850.99;;;11.98;48.11
40372;BME280;28564;53.346;-6.554;2023-02-19T01:03:08;101844.23;;;11.64;48.27
40372;BME280;28564;53.346;-6.554;2023-02-19T01:05:36;101833.37;;;11.43;48.14
40372;BME280;28564;53.346;-6.554;2023-02-19T01:08:03;101834.43;;;11.54;47.98
40372;BME280;28564;53.346;-6.554;2023-02-19T01:10:30;101830.00;;;11.67;47.59
40372;BME280;28564;53.346;-6.554;2023-02-19T01:12:57;101830.90;;;11.72;47.48
40372;BME280;28564;53.346;-6.554;2023-02-19T01:15:24;101828.17;;;11.73;47.44
40372;BME280;28564;53.346;-6.554;2023-02-19T01:17:51;101835.98;;;11.51;47.38
40372;BME280;28564;53.346;-6.554;2023-02-19T01:20:19;101843.26;;;11.75;47.32
40372;BME280;28564;53.346;-6.554;2023-02-19T01:22:47;101842.87;;;11.75;47.41
40372;BME280;28564;53.346;-6.554;2023-02-19T01:25:14;101850.04;;;11.78;47.37
40372;BME280;28564;53.346;-6.554;2023-02-19T01:27:41;101844.99;;;11.83;47.18
40372;BME280;28564;53.346;-6.554;2023-02-19T01:30:09;101845.52;;;11.79;47.26
40372;BME280;28564;53.346;-6.554;2023-02-19T01:32:36;101848.02;;;11.85;47.09
40372;BME280;28564;53.346;-6.554;2023-02-19T01:35:04;101859.87;;;11.89;46.96
40372;BME280;28564;53.346;-6.554;2023-02-19T01:37:31;101858.16;;;11.44;47.13
40372;BME280;28564;53.346;-6.554;2023-02-19T01:39:58;101857.85;;;11.51;46.95
40372;BME280;28564;53.346;-6.554;2023-02-19T01:42:26;101859.02;;;12.00;46.69
40372;BME280;28564;53.346;-6.554;2023-02-19T01:45:20;101864.67;;;11.98;46.68
40372;BME280;28564;53.346;-6.554;2023-02-19T01:47:50;101859.22;;;11.75;46.74
40372;BME280;28564;53.346;-6.554;2023-02-19T01:50:19;101854.06;;;11.98;46.71
40372;BME280;28564;53.346;-6.554;2023-02-19T01:52:47;101850.21;;;11.78;46.70
40372;BME280;28564;53.346;-6.554;2023-02-19T01:55:14;101847.15;;;11.72;47.06
40372;BME280;28564;53.346;-6.554;2023-02-19T01:57:44;101845.43;;;11.67;47.57
40372;BME280;28564;53.346;-6.554;2023-02-19T02:00:15;101854.19;;;11.50;47.88
40372;BME280;28564;53.346;-6.554;2023-02-19T02:02:47;101858.91;;;10.96;47.92
40372;BME280;28564;53.346;-6.554;2023-02-19T02:05:27;101854.59;;;11.02;47.76
40372;BME280;28564;53.346;-6.554;2023-02-19T02:07:55;101854.36;;;11.42;47.43
40372;BME280;28564;53.346;-6.554;2023-02-19T02:10:23;101841.36;;;11.20;47.16
40372;BME280;28564;53.346;-6.554;2023-02-19T02:12:56;101847.43;;;11.20;46.95
40372;BME280;28564;53.346;-6.554;2023-02-19T02:15:28;101853.15;;;11.14;46.90
40372;BME280;28564;53.346;-6.554;2023-02-19T02:18:06;101851.40;;;11.03;46.90
40372;BME280;28564;53.346;-6.554;2023-02-19T02:20:52;101864.21;;;10.97;47.06
40372;BME280;28564;53.346;-6.554;2023-02-19T02:23:34;101875.43;;;10.98;46.98
40372;BME280;28564;53.346;-6.554;2023-02-19T02:26:13;101890.20;;;10.99;46.87
40372;BME280;28564;53.346;-6.554;2023-02-19T02:29:00;101885.44;;;11.27;46.82
40372;BME280;28564;53.346;-6.554;2023-02-19T02:31:34;101879.15;;;10.97;46.78
40372;BME280;28564;53.346;-6.554;2023-02-19T02:34:11;101884.56;;;10.93;46.86
40372;BME280;28564;53.346;-6.554;2023-02-19T02:36:42;101888.66;;;11.41;47.00
40372;BME280;28564;53.346;-6.554;2023-02-19T02:39:13;101880.46;;;11.17;47.12
40372;BME280;28564;53.346;-6.554;2023-02-19T02:41:42;101880.21;;;10.91;47.16
40372;BME280;28564;53.346;-6.554;2023-02-19T02:44:10;101878.58;;;11.02;47.05
40372;BME280;28564;53.346;-6.554;2023-02-19T02:46:40;101878.34;;;11.04;47.13
40372;BME280;28564;53.346;-6.554;2023-02-19T02:49:16;101879.87;;;10.99;47.23
40372;BME280;28564;53.346;-6.554;2023-02-19T02:51:48;101879.00;;;11.35;47.36
40372;BME280;28564;53.346;-6.554;2023-02-19T02:54:23;101889.72;;;11.32;47.81
40372;BME280;28564;53.346;-6.554;2023-02-19T02:56:53;101897.01;;;10.84;48.27
40372;BME280;28564;53.346;-6.554;2023-02-19T02:59:24;101906.63;;;10.70;48.51
40372;BME280;28564;53.346;-6.554;2023-02-19T03:01:56;101918.22;;;10.81;48.82
40372;BME280;28564;53.346;-6.554;2023-02-19T03:04:31;101921.99;;;10.50;49.04
40372;BME280;28564;53.346;-6.554;2023-02-19T03:07:03;101923.76;;;10.41;49.21
40372;BME280;28564;53.346;-6.554;2023-02-19T03:09:36;101921.11;;;10.58;49.34
40372;BME280;28564;53.346;-6.554;2023-02-19T03:12:05;101921.57;;;10.60;49.56
40372;BME280;28564;53.346;-6.554;2023-02-19T03:14:40;101929.28;;;10.98;49.36
40372;BME280;28564;53.346;-6.554;2023-02-19T03:17:12;101928.28;;;10.62;49.09
40372;BME280;28564;53.346;-6.554;2023-02-19T03:19:43;101919.27;;;10.62;49.05
40372;BME280;28564;53.346;-6.554;2023-02-19T03:22:14;101912.99;;;10.85;49.04
40372;BME280;28564;53.346;-6.554;2023-02-19T03:24:48;101911.75;;;10.85;49.07
40372;BME280;28564;53.346;-6.554;2023-02-19T03:27:17;101915.18;;;10.81;49.25
40372;BME280;28564;53.346;-6.554;2023-02-19T03:29:48;101918.10;;;10.84;49.20
40372;BME280;28564;53.346;-6.554;2023-02-19T03:32:20;101917.70;;;10.81;49.30
40372;BME280;28564;53.346;-6.554;2023-02-19T03:34:54;101913.22;;;10.83;49.30
40372;BME280;28564;53.346;-6.554;2023-02-19T03:37:27;101910.90;;;10.58;49.36
40372;BME280;28564;53.346;-6.554;2023-02-19T03:39:55;101911.93;;;10.58;49.45
40372;BME280;28564;53.346;-6.554;2023-02-19T03:42:33;101910.08;;;10.81;49.49
40372;BME280;28564;53.346;-6.554;2023-02-19T03:45:14;101914.89;;;10.56;49.57
40372;BME280;28564;53.346;-6.554;2023-02-19T03:47:49;101921.23;;;10.51;49.89
40372;BME280;28564;53.346;-6.554;2023-02-19T03:50:21;101919.00;;;10.52;50.05
40372;BME280;28564;53.346;-6.554;2023-02-19T03:52:57;101914.25;;;10.77;50.10
40372;BME280;28564;53.346;-6.554;2023-02-19T03:55:33;101917.09;;;10.76;50.28
40372;BME280;28564;53.346;-6.554;2023-02-19T03:58:08;101917.29;;;10.58;50.37
40372;BME280;28564;53.346;-6.554;2023-02-19T04:00:43;101926.57;;;10.63;50.37
40372;BME280;28564;53.346;-6.554;2023-02-19T04:03:18;101936.41;;;10.89;50.34
40372;BME280;28564;53.346;-6.554;2023-02-19T04:05:50;101938.26;;;10.72;50.40
40372;BME280;28564;53.346;-6.554;2023-02-19T04:08:21;101935.88;;;10.75;50.44
40372;BME280;28564;53.346;-6.554;2023-02-19T04:10:51;101941.55;;;10.79;50.44
40372;BME280;28564;53.346;-6.554;2023-02-19T04:13:22;101940.61;;;10.78;50.56
40372;BME280;28564;53.346;-6.554;2023-02-19T04:15:54;101933.99;;;10.84;50.58
40372;BME280;28564;53.346;-6.554;2023-02-19T04:18:25;101946.61;;;10.86;50.60
40372;BME280;28564;53.346;-6.554;2023-02-19T04:20:56;101948.71;;;10.91;50.76
40372;BME280;28564;53.346;-6.554;2023-02-19T04:23:29;101956.81;;;10.96;50.90
40372;BME280;28564;53.346;-6.554;2023-02-19T04:26:00;101963.42;;;10.98;51.08
40372;BME280;28564;53.346;-6.554;2023-02-19T04:28:29;101962.74;;;11.22;51.21
40372;BME280;28564;53.346;-6.554;2023-02-19T04:30:56;101961.49;;;11.22;51.43
40372;BME280;28564;53.346;-6.554;2023-02-19T04:33:24;101958.01;;;11.02;51.57
40372;BME280;28564;53.346;-6.554;2023-02-19T04:35:51;101957.83;;;11.04;51.63
40372;BME280;28564;53.346;-6.554;2023-02-19T04:38:18;101962.01;;;11.04;51.72
40372;BME280;28564;53.346;-6.554;2023-02-19T04:40:46;101972.58;;;11.13;51.66
40372;BME280;28564;53.346;-6.554;2023-02-19T04:43:13;101966.59;;;11.13;51.77
40372;BME280;28564;53.346;-6.554;2023-02-19T04:45:40;101971.94;;;11.11;51.95
40372;BME280;28564;53.346;-6.554;2023-02-19T04:48:08;101975.33;;;11.15;51.97
40372;BME280;28564;53.346;-6.554;2023-02-19T04:50:37;101969.73;;;11.20;52.01
40372;BME280;28564;53.346;-6.554;2023-02-19T04:53:04;101963.70;;;11.19;52.10
40372;BME280;28564;53.346;-6.554;2023-02-19T04:55:35;101960.07;;;10.98;52.19
40372;BME280;28564;53.346;-6.554;2023-02-19T04:58:03;101958.31;;;11.22;52.19
40372;BME280;28564;53.346;-6.554;2023-02-19T05:00:30;101956.21;;;11.20;52.24
40372;BME280;28564;53.346;-6.554;2023-02-19T05:02:58;101957.62;;;11.40;52.30
40372;BME280;28564;53.346;-6.554;2023-02-19T05:05:26;101953.96;;;11.18;52.32
40372;BME280;28564;53.346;-6.554;2023-02-19T05:07:53;101943.40;;;11.13;52.44
40372;BME280;28564;53.346;-6.554;2023-02-19T05:10:20;101938.04;;;11.11;52.46
40372;BME280;28564;53.346;-6.554;2023-02-19T05:12:47;101935.75;;;11.10;52.39
40372;BME280;28564;53.346;-6.554;2023-02-19T05:15:14;101933.77;;;11.06;52.30
40372;BME280;28564;53.346;-6.554;2023-02-19T05:17:41;101939.48;;;11.05;52.28
40372;BME280;28564;53.346;-6.554;2023-02-19T05:20:09;101948.50;;;11.05;52.36
40372;BME280;28564;53.346;-6.554;2023-02-19T05:22:37;101941.52;;;11.09;52.25
40372;BME280;28564;53.346;-6.554;2023-02-19T05:25:04;101927.30;;;11.05;52.16
40372;BME280;28564;53.346;-6.554;2023-02-19T05:27:32;101926.78;;;10.98;52.22
40372;BME280;28564;53.346;-6.554;2023-02-19T05:29:59;101923.04;;;11.13;52.27
40372;BME280;28564;53.346;-6.554;2023-02-19T05:32:26;101905.39;;;11.03;52.49
40372;BME280;28564;53.346;-6.554;2023-02-19T05:34:54;101896.06;;;10.76;52.60
40372;BME280;28564;53.346;-6.554;2023-02-19T05:37:21;101890.57;;;10.74;52.69
40372;BME280;28564;53.346;-6.554;2023-02-19T05:39:48;101888.09;;;10.76;52.54
40372;BME280;28564;53.346;-6.554;2023-02-19T05:42:15;101889.64;;;10.78;52.48
40372;BME280;28564;53.346;-6.554;2023-02-19T05:44:43;101889.58;;;10.98;52.47
40372;BME280;28564;53.346;-6.554;2023-02-19T05:47:10;101887.32;;;10.76;52.53
40372;BME280;28564;53.346;-6.554;2023-02-19T05:49:37;101899.88;;;10.74;52.73
40372;BME280;28564;53.346;-6.554;2023-02-19T05:52:04;101909.77;;;10.97;52.76
40372;BME280;28564;53.346;-6.554;2023-02-19T05:54:31;101896.30;;;10.69;53.04
40372;BME280;28564;53.346;-6.554;2023-02-19T05:56:59;101887.55;;;10.93;52.97
40372;BME280;28564;53.346;-6.554;2023-02-19T05:59:26;101880.22;;;10.69;53.05
40372;BME280;28564;53.346;-6.554;2023-02-19T06:01:53;101868.32;;;10.70;53.17
40372;BME280;28564;53.346;-6.554;2023-02-19T06:04:21;101871.10;;;10.97;53.01
40372;BME280;28564;53.346;-6.554;2023-02-19T06:06:48;101876.75;;;10.80;52.92
40372;BME280;28564;53.346;-6.554;2023-02-19T06:09:16;101872.82;;;10.65;52.78
40372;BME280;28564;53.346;-6.554;2023-02-19T06:11:44;101870.02;;;10.87;52.87
40372;BME280;28564;53.346;-6.554;2023-02-19T06:14:12;101861.84;;;10.88;52.94
40372;BME280;28564;53.346;-6.554;2023-02-19T06:16:39;101860.95;;;10.94;52.83
40372;BME280;28564;53.346;-6.554;2023-02-19T06:19:06;101870.24;;;11.00;52.77
40372;BME280;28564;53.346;-6.554;2023-02-19T06:21:34;101866.89;;;10.53;52.68
40372;BME280;28564;53.346;-6.554;2023-02-19T06:24:04;101861.35;;;11.08;52.49
40372;BME280;28564;53.346;-6.554;2023-02-19T06:26:31;101856.44;;;11.08;52.47
40372;BME280;28564;53.346;-6.554;2023-02-19T06:28:58;101859.72;;;11.02;52.55
40372;BME280;28564;53.346;-6.554;2023-02-19T06:31:26;101859.42;;;10.92;52.69
40372;BME280;28564;53.346;-6.554;2023-02-19T06:33:53;101854.29;;;10.83;52.91
40372;BME280;28564;53.346;-6.554;2023-02-19T06:36:21;101855.82;;;10.73;53.26
40372;BME280;28564;53.346;-6.554;2023-02-19T06:38:48;101854.43;;;10.76;53.42
40372;BME280;28564;53.346;-6.554;2023-02-19T06:41:16;101848.85;;;10.74;53.43
40372;BME280;28564;53.346;-6.554;2023-02-19T06:43:44;101848.32;;;10.75;53.30
40372;BME280;28564;53.346;-6.554;2023-02-19T06:46:12;101850.37;;;10.74;53.38
40372;BME280;28564;53.346;-6.554;2023-02-19T06:48:40;101851.50;;;10.91;53.49
40372;BME280;28564;53.346;-6.554;2023-02-19T06:51:10;101836.62;;;10.87;53.65
40372;BME280;28564;53.346;-6.554;2023-02-19T06:53:38;101841.42;;;10.92;53.66
40372;BME280;28564;53.346;-6.554;2023-02-19T06:56:06;101852.75;;;10.92;53.58
40372;BME280;28564;53.346;-6.554;2023-02-19T06:58:46;101848.91;;;10.94;53.47
40372;BME280;28564;53.346;-6.554;2023-02-19T07:01:13;101843.61;;;10.59;53.26
40372;BME280;28564;53.346;-6.554;2023-02-19T07:03:40;101846.55;;;10.87;53.17
40372;BME280;28564;53.346;-6.554;2023-02-19T07:06:08;101851.74;;;10.89;53.05
40372;BME280;28564;53.346;-6.554;2023-02-19T07:08:35;101864.79;;;10.87;52.92
40372;BME280;28564;53.346;-6.554;2023-02-19T07:11:02;101877.76;;;10.85;52.88
40372;BME280;28564;53.346;-6.554;2023-02-19T07:13:29;101877.00;;;10.83;52.95
40372;BME280;28564;53.346;-6.554;2023-02-19T07:15:57;101867.24;;;10.78;52.87
40372;BME280;28564;53.346;-6.554;2023-02-19T07:18:25;101869.25;;;10.74;52.89
40372;BME280;28564;53.346;-6.554;2023-02-19T07:20:52;101874.22;;;10.74;52.97
40372;BME280;28564;53.346;-6.554;2023-02-19T07:23:20;101881.49;;;10.73;52.92
40372;BME280;28564;53.346;-6.554;2023-02-19T07:25:47;101887.45;;;10.74;52.93
40372;BME280;28564;53.346;-6.554;2023-02-19T07:28:14;101895.14;;;10.99;52.86
40372;BME280;28564;53.346;-6.554;2023-02-19T07:30:41;101906.44;;;10.74;52.87
40372;BME280;28564;53.346;-6.554;2023-02-19T07:33:09;101914.51;;;10.94;52.99
40372;BME280;28564;53.346;-6.554;2023-02-19T07:35:37;101920.79;;;10.73;52.92
40372;BME280;28564;53.346;-6.554;2023-02-19T07:38:04;101919.26;;;10.72;53.00
40372;BME280;28564;53.346;-6.554;2023-02-19T07:40:31;101908.40;;;10.67;53.18
40372;BME280;28564;53.346;-6.554;2023-02-19T07:42:59;101916.00;;;10.92;53.23
40372;BME280;28564;53.346;-6.554;2023-02-19T07:45:26;101928.75;;;10.72;53.15
40372;BME280;28564;53.346;-6.554;2023-02-19T07:47:53;101924.17;;;10.70;53.28
40372;BME280;28564;53.346;-6.554;2023-02-19T07:50:20;101920.27;;;10.74;53.32
40372;BME280;28564;53.346;-6.554;2023-02-19T07:52:47;101914.17;;;10.75;53.24
40372;BME280;28564;53.346;-6.554;2023-02-19T07:55:15;101920.43;;;10.76;53.27
40372;BME280;28564;53.346;-6.554;2023-02-19T07:57:42;101933.50;;;10.77;53.38
40372;BME280;28564;53.346;-6.554;2023-02-19T08:00:10;101939.90;;;10.83;53.23
40372;BME280;28564;53.346;-6.554;2023-02-19T08:02:37;101935.57;;;11.04;53.35
40372;BME280;28564;53.346;-6.554;2023-02-19T08:05:05;101936.19;;;10.87;53.36
40372;BME280;28564;53.346;-6.554;2023-02-19T08:07:33;101932.25;;;11.14;53.26
40372;BME280;28564;53.346;-6.554;2023-02-19T08:10:02;101938.93;;;10.98;53.23
40372;BME280;28564;53.346;-6.554;2023-02-19T08:12:29;101934.23;;;11.04;53.15
40372;BME280;28564;53.346;-6.554;2023-02-19T08:14:57;101937.10;;;11.09;53.02
40372;BME280;28564;53.346;-6.554;2023-02-19T08:17:24;101938.90;;;11.13;52.97
40372;BME280;28564;53.346;-6.554;2023-02-19T08:19:51;101937.14;;;11.17;53.01
40372;BME280;28564;53.346;-6.554;2023-02-19T08:22:18;101932.35;;;10.96;53.06
40372;BME280;28564;53.346;-6.554;2023-02-19T08:24:45;101941.05;;;11.24;52.83
40372;BME280;28564;53.346;-6.554;2023-02-19T08:27:13;101932.38;;;11.25;52.81
40372;BME280;28564;53.346;-6.554;2023-02-19T08:29:40;101931.23;;;11.22;52.87
40372;BME280;28564;53.346;-6.554;2023-02-19T08:32:07;101934.45;;;11.20;53.08
40372;BME280;28564;53.346;-6.554;2023-02-19T08:34:34;101925.69;;;11.21;53.30
40372;BME280;28564;53.346;-6.554;2023-02-19T08:37:01;101926.01;;;11.23;53.37
40372;BME280;28564;53.346;-6.554;2023-02-19T08:39:29;101922.51;;;11.30;53.26
40372;BME280;28564;53.346;-6.554;2023-02-19T08:41:56;101919.28;;;11.34;52.97
40372;BME280;28564;53.346;-6.554;2023-02-19T08:44:23;101918.21;;;11.37;53.06
40372;BME280;28564;53.346;-6.554;2023-02-19T08:46:50;101921.90;;;11.39;52.93
40372;BME280;28564;53.346;-6.554;2023-02-19T08:49:18;101920.32;;;11.23;52.80
40372;BME280;28564;53.346;-6.554;2023-02-19T08:51:45;101910.68;;;11.44;52.82
40372;BME280;28564;53.346;-6.554;2023-02-19T08:54:12;101910.27;;;11.49;52.79
40372;BME280;28564;53.346;-6.554;2023-02-19T08:56:39;101906.89;;;11.33;52.65
40372;BME280;28564;53.346;-6.554;2023-02-19T08:59:06;101903.89;;;11.58;52.57
40372;BME280;28564;53.346;-6.554;2023-02-19T09:01:33;101908.15;;;11.55;52.73
40372;BME280;28564;53.346;-6.554;2023-02-19T09:04:01;101914.48;;;11.55;53.03
40372;BME280;28564;53.346;-6.554;2023-02-19T09:06:28;101916.95;;;11.61;52.84
40372;BME280;28564;53.346;-6.554;2023-02-19T09:08:55;101917.46;;;11.45;52.96
40372;BME280;28564;53.346;-6.554;2023-02-19T09:11:22;101915.23;;;11.74;52.76
40372;BME280;28564;53.346;-6.554;2023-02-19T09:13:49;101915.67;;;11.31;52.84
40372;BME280;28564;53.346;-6.554;2023-02-19T09:16:17;101920.97;;;11.59;52.80
40372;BME280;28564;53.346;-6.554;2023-02-19T09:18:44;101924.48;;;11.57;52.96
40372;BME280;28564;53.346;-6.554;2023-02-19T09:21:11;101926.97;;;11.59;52.85
40372;BME280;28564;53.346;-6.554;2023-02-19T09:23:38;101917.97;;;11.36;52.78
40372;BME280;28564;53.346;-6.554;2023-02-19T09:26:06;101916.73;;;11.72;52.51
40372;BME280;28564;53.346;-6.554;2023-02-19T09:28:34;101918.96;;;11.52;52.56
40372;BME280;28564;53.346;-6.554;2023-02-19T09:31:03;101919.56;;;11.87;52.33
40372;BME280;28564;53.346;-6.554;2023-02-19T09:33:30;101916.01;;;11.67;51.99
40372;BME280;28564;53.346;-6.554;2023-02-19T09:35:58;101912.68;;;11.67;52.17
40372;BME280;28564;53.346;-6.554;2023-02-19T09:38:26;101913.29;;;11.78;52.10
40372;BME280;28564;53.346;-6.554;2023-02-19T09:40:53;101920.86;;;11.91;51.66
40372;BME280;28564;53.346;-6.554;2023-02-19T09:43:21;101920.00;;;11.93;51.65
40372;BME280;28564;53.346;-6.554;2023-02-19T09:45:59;101925.64;;;11.98;51.49
40372;BME280;28564;53.346;-6.554;2023-02-19T09:48:28;101932.59;;;12.05;51.40
40372;BME280;28564;53.346;-6.554;2023-02-19T09:50:56;101927.52;;;12.08;51.21
40372;BME280;28564;53.346;-6.554;2023-02-19T09:53:28;101936.46;;;12.37;51.09
40372;BME280;28564;53.346;-6.554;2023-02-19T09:55:56;101953.60;;;11.92;51.13
40372;BME280;28564;53.346;-6.554;2023-02-19T09:58:26;101943.54;;;12.15;51.25
40372;BME280;28564;53.346;-6.554;2023-02-19T10:03:50;101939.57;;;12.49;50.23
40372;BME280;28564;53.346;-6.554;2023-02-19T10:06:19;101952.15;;;12.51;50.29
40372;BME280;28564;53.346;-6.554;2023-02-19T10:08:48;101955.66;;;12.55;49.85
40372;BME280;28564;53.346;-6.554;2023-02-19T10:11:16;101956.19;;;12.35;49.77
40372;BME280;28564;53.346;-6.554;2023-02-19T10:13:46;101945.97;;;12.72;49.98
40372;BME280;28564;53.346;-6.554;2023-02-19T10:16:19;101945.07;;;12.68;50.02
40372;BME280;28564;53.346;-6.554;2023-02-19T10:18:47;101934.54;;;12.64;49.91
40372;BME280;28564;53.346;-6.554;2023-02-19T10:21:16;101932.39;;;12.62;49.92
40372;BME280;28564;53.346;-6.554;2023-02-19T10:23:46;101925.04;;;12.68;49.93
40372;BME280;28564;53.346;-6.554;2023-02-19T10:26:15;101934.32;;;12.71;49.90
40372;BME280;28564;53.346;-6.554;2023-02-19T10:28:42;101939.00;;;12.78;49.53
40372;BME280;28564;53.346;-6.554;2023-02-19T10:31:15;101942.45;;;12.75;49.12
40372;BME280;28564;53.346;-6.554;2023-02-19T10:33:49;101942.81;;;12.68;49.54
40372;BME280;28564;53.346;-6.554;2023-02-19T10:36:24;101945.58;;;12.69;49.58
40372;BME280;28564;53.346;-6.554;2023-02-19T10:38:52;101934.25;;;12.72;49.53
40372;BME280;28564;53.346;-6.554;2023-02-19T10:41:21;101940.30;;;12.79;49.58
40372;BME280;28564;53.346;-6.554;2023-02-19T10:43:53;101933.80;;;12.86;49.79
40372;BME280;28564;53.346;-6.554;2023-02-19T10:46:24;101945.48;;;12.81;49.76
40372;BME280;28564;53.346;-6.554;2023-02-19T10:48:53;101931.59;;;13.02;49.54
40372;BME280;28564;53.346;-6.554;2023-02-19T10:51:30;101934.05;;;12.91;49.22
40372;BME280;28564;53.346;-6.554;2023-02-19T10:54:05;101930.30;;;12.99;49.15
40372;BME280;28564;53.346;-6.554;2023-02-19T10:56:33;101928.89;;;13.16;49.27
40372;BME280;28564;53.346;-6.554;2023-02-19T10:59:18;101922.38;;;13.05;49.07
40372;BME280;28564;53.346;-6.554;2023-02-19T11:01:57;101933.24;;;13.24;49.54
40372;BME280;28564;53.346;-6.554;2023-02-19T11:04:26;101936.56;;;13.29;49.19
40372;BME280;28564;53.346;-6.554;2023-02-19T11:06:54;101935.76;;;13.37;47.57
40372;BME280;28564;53.346;-6.554;2023-02-19T11:09:26;101936.75;;;13.59;47.38
40372;BME280;28564;53.346;-6.554;2023-02-19T11:11:55;101943.48;;;13.95;46.70
40372;BME280;28564;53.346;-6.554;2023-02-19T11:14:24;101938.63;;;14.02;46.51
40372;BME280;28564;53.346;-6.554;2023-02-19T11:16:55;101935.01;;;14.21;45.41
40372;BME280;28564;53.346;-6.554;2023-02-19T11:19:32;101921.56;;;14.09;45.64
40372;BME280;28564;53.346;-6.554;2023-02-19T11:22:17;101932.23;;;13.97;44.89
40372;BME280;28564;53.346;-6.554;2023-02-19T11:24:47;101911.72;;;14.20;44.79
40372;BME280;28564;53.346;-6.554;2023-02-19T11:27:17;101907.77;;;13.95;44.57
40372;BME280;28564;53.346;-6.554;2023-02-19T11:29:45;101913.45;;;14.24;44.59
40372;BME280;28564;53.346;-6.554;2023-02-19T11:32:29;101917.04;;;13.98;44.85
40372;BME280;28564;53.346;-6.554;2023-02-19T11:35:29;101924.61;;;14.16;44.55
40372;BME280;28564;53.346;-6.554;2023-02-19T11:37:58;101918.77;;;14.20;44.48
40372;BME280;28564;53.346;-6.554;2023-02-19T11:40:38;101924.43;;;14.27;44.47
40372;BME280;28564;53.346;-6.554;2023-02-19T11:43:14;101930.64;;;14.09;43.84
40372;BME280;28564;53.346;-6.554;2023-02-19T11:45:52;101915.31;;;14.06;44.17
40372;BME280;28564;53.346;-6.554;2023-02-19T11:48:34;101913.54;;;14.15;44.22
40372;BME280;28564;53.346;-6.554;2023-02-19T11:51:17;101918.66;;;14.75;44.21
40372;BME280;28564;53.346;-6.554;2023-02-19T11:53:55;101906.91;;;14.33;43.93
40372;BME280;28564;53.346;-6.554;2023-02-19T11:56:38;101906.96;;;14.37;44.04
40372;BME280;28564;53.346;-6.554;2023-02-19T11:59:15;101899.88;;;14.30;43.85
40372;BME280;28564;53.346;-6.554;2023-02-19T12:04:12;101879.42;;;15.07;43.46
40372;BME280;28564;53.346;-6.554;2023-02-19T12:06:56;101888.31;;;14.71;43.35
40372;BME280;28564;53.346;-6.554;2023-02-19T12:09:40;101882.90;;;14.66;43.43
40372;BME280;28564;53.346;-6.554;2023-02-19T12:12:25;101886.70;;;15.06;43.02
40372;BME280;28564;53.346;-6.554;2023-02-19T12:15:25;101876.89;;;15.12;42.81
40372;BME280;28564;53.346;-6.554;2023-02-19T12:18:07;101879.07;;;15.14;42.51
40372;BME280;28564;53.346;-6.554;2023-02-19T12:20:45;101865.57;;;14.93;41.99
40372;BME280;28564;53.346;-6.554;2023-02-19T12:23:34;101861.10;;;14.94;42.17
40372;BME280;28564;53.346;-6.554;2023-02-19T12:26:11;101858.07;;;15.08;41.88
40372;BME280;28564;53.346;-6.554;2023-02-19T12:28:55;101859.02;;;15.14;41.44
40372;BME280;28564;53.346;-6.554;2023-02-19T12:31:41;101841.44;;;15.12;41.62
40372;BME280;28564;53.346;-6.554;2023-02-19T12:34:32;101837.96;;;15.38;41.82
40372;BME280;28564;53.346;-6.554;2023-02-19T12:37:10;101818.62;;;15.10;41.96
40372;BME280;28564;53.346;-6.554;2023-02-19T12:39:46;101805.54;;;15.27;41.80
40372;BME280;28564;53.346;-6.554;2023-02-19T12:42:36;101806.20;;;15.66;41.71
40372;BME280;28564;53.346;-6.554;2023-02-19T12:45:09;101801.51;;;15.56;41.31
40372;BME280;28564;53.346;-6.554;2023-02-19T12:47:44;101786.99;;;15.63;40.82
40372;BME280;28564;53.346;-6.554;2023-02-19T12:50:18;101780.95;;;15.77;40.54
40372;BME280;28564;53.346;-6.554;2023-02-19T12:52:50;101781.95;;;15.96;40.57
40372;BME280;28564;53.346;-6.554;2023-02-19T12:55:23;101773.21;;;16.05;40.57
40372;BME280;28564;53.346;-6.554;2023-02-19T12:57:53;101769.89;;;15.98;40.78
40372;BME280;28564;53.346;-6.554;2023-02-19T13:00:28;101764.24;;;15.89;40.99
40372;BME280;28564;53.346;-6.554;2023-02-19T13:03:01;101762.03;;;15.96;40.97